createdAt,value
2022-10-17T00:01:46.361Z,14.26
2022-10-17T00:04:14.631Z,14.48
2022-10-17T00:06:42.899Z,14.46
2022-10-17T00:09:11.150Z,14.37
2022-10-17T00:11:39.355Z,14.48
2022-10-17T00:14:07.620Z,14.26
2022-10-17T00:16:37.671Z,14.38
2022-10-17T00:19:08.416Z,14.53
2022-10-17T00:21:36.753Z,14.45
2022-10-17T00:24:05.605Z,14.61
2022-10-17T00:26:34.196Z,14.56
2022-10-17T00:29:02.531Z,14.56
2022-10-17T00:31:30.835Z,14.74
2022-10-17T00:34:01.195Z,14.81
2022-10-17T00:36:31.599Z,14.92
2022-10-17T00:39:02.035Z,14.52
2022-10-17T00:41:33.314Z,14.68
2022-10-17T00:44:04.269Z,14.39
2022-10-17T00:46:36.665Z,14.47
2022-10-17T00:49:08.729Z,14.64
2022-10-17T00:51:43.924Z,15.02
2022-10-17T00:54:13.932Z,14.69
2022-10-17T00:56:42.749Z,14.84
2022-10-17T00:59:13.467Z,14.73
2022-10-17T01:01:44.071Z,14.76
2022-10-17T01:04:12.444Z,14.74
2022-10-17T01:06:42.578Z,14.78
2022-10-17T01:09:11.046Z,14.85
2022-10-17T01:11:46.669Z,14.92
2022-10-17T01:14:26.006Z,14.98
2022-10-17T01:17:05.568Z,14.75
2022-10-17T01:19:59.575Z,14.41
2022-10-17T01:22:37.008Z,14.52
2022-10-17T01:25:28.680Z,14.64
2022-10-17T01:28:20.412Z,14.53
2022-10-17T01:31:05.451Z,14.85
2022-10-17T01:33:44.636Z,14.70
2022-10-17T01:36:22.180Z,14.30
2022-10-17T01:38:54.113Z,14.01
2022-10-17T01:41:33.448Z,14.27
2022-10-17T01:44:08.728Z,13.83
2022-10-17T01:46:40.676Z,13.95
2022-10-17T01:49:12.651Z,13.76
2022-10-17T01:51:46.896Z,13.70
2022-10-17T01:54:19.943Z,13.46
2022-10-17T01:56:52.546Z,13.25
2022-10-17T01:59:24.739Z,12.96
2022-10-17T02:01:59.513Z,13.47
2022-10-17T02:04:28.691Z,13.34
2022-10-17T02:06:56.924Z,12.89
2022-10-17T02:09:26.828Z,13.05
2022-10-17T02:12:22.054Z,13.56
2022-10-17T02:15:03.098Z,13.55
2022-10-17T02:17:45.106Z,13.55
2022-10-17T02:20:21.299Z,13.53
2022-10-17T02:22:55.223Z,13.47
2022-10-17T02:25:35.620Z,13.06
2022-10-17T02:28:11.918Z,13.20
2022-10-17T02:30:46.094Z,13.03
2022-10-17T02:33:22.144Z,13.05
2022-10-17T02:35:55.743Z,12.89
2022-10-17T02:38:25.352Z,12.94
2022-10-17T02:40:54.994Z,12.89
2022-10-17T02:43:26.761Z,12.84
2022-10-17T02:45:56.940Z,12.63
2022-10-17T02:48:32.103Z,12.48
2022-10-17T02:51:06.635Z,12.84
2022-10-17T02:53:43.536Z,12.92
2022-10-17T02:56:18.323Z,13.01
2022-10-17T02:58:51.981Z,13.18
2022-10-17T03:01:20.920Z,13.11
2022-10-17T03:03:50.590Z,13.15
2022-10-17T03:06:19.250Z,13.17
2022-10-17T03:08:47.656Z,13.28
2022-10-17T03:11:15.967Z,13.19
2022-10-17T03:13:44.050Z,13.02
2022-10-17T03:16:12.032Z,13.28
2022-10-17T03:18:40.284Z,13.03
2022-10-17T03:21:12.147Z,13.05
2022-10-17T03:23:40.202Z,12.99
2022-10-17T03:26:09.039Z,13.04
2022-10-17T03:28:37.433Z,13.22
2022-10-17T03:31:09.740Z,12.91
2022-10-17T03:33:39.042Z,13.06
2022-10-17T03:36:08.284Z,13.23
2022-10-17T03:38:37.849Z,13.12
2022-10-17T03:41:07.288Z,12.90
2022-10-17T03:43:36.521Z,12.80
2022-10-17T03:46:04.796Z,12.63
2022-10-17T03:48:33.780Z,12.49
2022-10-17T03:51:02.292Z,12.39
2022-10-17T03:53:31.193Z,12.32
2022-10-17T03:56:09.697Z,12.22
2022-10-17T03:58:37.970Z,12.58
2022-10-17T04:01:06.314Z,12.66
2022-10-17T04:03:34.388Z,12.56
2022-10-17T04:06:03.036Z,12.49
2022-10-17T04:08:32.798Z,12.45
2022-10-17T04:11:08.971Z,12.41
2022-10-17T04:13:37.042Z,12.36
2022-10-17T04:16:08.474Z,12.39
2022-10-17T04:18:41.919Z,12.43
2022-10-17T04:21:10.532Z,12.41
2022-10-17T04:23:38.919Z,12.57
2022-10-17T04:26:18.024Z,12.16
2022-10-17T04:28:46.347Z,12.18
2022-10-17T04:31:14.783Z,12.15
2022-10-17T04:34:02.132Z,12.07
2022-10-17T04:36:30.259Z,11.77
2022-10-17T04:39:01.687Z,11.87
2022-10-17T04:41:32.555Z,11.84
2022-10-17T04:44:00.786Z,11.88
2022-10-17T04:46:29.303Z,12.09
2022-10-17T04:48:57.748Z,12.11
2022-10-17T04:51:26.726Z,12.37
2022-10-17T04:54:12.075Z,12.51
2022-10-17T04:56:44.974Z,12.12
2022-10-17T04:59:12.960Z,12.37
2022-10-17T05:01:42.388Z,12.10
2022-10-17T05:04:10.422Z,11.92
2022-10-17T05:06:38.617Z,12.17
2022-10-17T05:09:34.368Z,12.25
2022-10-17T05:12:09.590Z,12.20
2022-10-17T05:14:40.804Z,12.15
2022-10-17T05:17:08.955Z,12.20
2022-10-17T05:19:37.017Z,12.18
2022-10-17T05:22:05.466Z,12.03
2022-10-17T05:24:33.463Z,11.95
2022-10-17T05:27:01.547Z,11.89
2022-10-17T05:29:31.292Z,11.70
2022-10-17T05:32:07.590Z,11.64
2022-10-17T05:34:36.671Z,11.71
2022-10-17T05:37:04.903Z,11.64
2022-10-17T05:39:33.780Z,11.75
2022-10-17T05:42:01.770Z,11.89
2022-10-17T05:44:31.299Z,11.79
2022-10-17T05:47:02.065Z,11.73
2022-10-17T05:49:44.950Z,11.72
2022-10-17T05:52:18.529Z,11.72
2022-10-17T05:55:01.046Z,11.80
2022-10-17T05:57:29.183Z,11.97
2022-10-17T06:00:01.545Z,11.99
2022-10-17T06:02:42.140Z,12.11
2022-10-17T06:05:12.766Z,12.50
2022-10-17T06:07:40.923Z,12.36
2022-10-17T06:10:09.859Z,12.34
2022-10-17T06:12:38.008Z,12.43
2022-10-17T06:15:08.066Z,12.38
2022-10-17T06:17:36.709Z,12.59
2022-10-17T06:20:05.034Z,12.45
2022-10-17T06:22:33.710Z,12.46
2022-10-17T06:25:03.219Z,12.08
2022-10-17T06:27:31.202Z,11.91
2022-10-17T06:29:59.238Z,11.98
2022-10-17T06:32:31.226Z,12.33
2022-10-17T06:34:59.389Z,12.95
2022-10-17T06:37:35.308Z,12.36
2022-10-17T06:40:07.919Z,12.06
2022-10-17T06:42:36.334Z,12.12
2022-10-17T06:45:27.604Z,12.01
2022-10-17T06:48:15.815Z,12.14
2022-10-17T06:51:11.341Z,12.34
2022-10-17T06:53:48.744Z,12.67
2022-10-17T06:56:35.468Z,12.83
2022-10-17T06:59:11.542Z,12.46
2022-10-17T07:01:46.074Z,12.95
2022-10-17T07:04:16.974Z,13.23
2022-10-17T07:06:45.392Z,13.11
2022-10-17T07:09:18.003Z,13.40
2022-10-17T07:11:46.250Z,13.21
2022-10-17T07:14:18.243Z,13.35
2022-10-17T07:16:47.483Z,13.87
2022-10-17T07:19:22.473Z,13.94
2022-10-17T07:21:51.537Z,14.22
2022-10-17T07:24:19.750Z,13.60
2022-10-17T07:26:52.562Z,13.76
2022-10-17T07:29:21.620Z,13.98
2022-10-17T07:32:08.553Z,14.19
2022-10-17T07:34:37.959Z,14.29
2022-10-17T07:37:09.807Z,14.44
2022-10-17T07:39:39.967Z,14.54
2022-10-17T07:42:08.627Z,14.42
2022-10-17T07:44:36.625Z,14.37
2022-10-17T07:47:05.280Z,14.42
2022-10-17T07:49:33.308Z,14.33
2022-10-17T07:52:02.665Z,14.39
2022-10-17T07:54:32.774Z,14.58
2022-10-17T07:57:00.917Z,14.74
2022-10-17T07:59:28.957Z,15.06
2022-10-17T08:01:57.055Z,15.19
2022-10-17T08:04:25.053Z,15.33
2022-10-17T08:06:56.427Z,15.54
2022-10-17T08:09:30.089Z,15.04
2022-10-17T08:11:58.115Z,15.18
2022-10-17T08:14:26.075Z,14.79
2022-10-17T08:16:55.400Z,15.13
2022-10-17T08:19:23.394Z,15.29
2022-10-17T08:21:52.279Z,15.80
2022-10-17T08:24:20.281Z,15.89
2022-10-17T08:26:51.876Z,16.00
2022-10-17T08:29:20.151Z,16.05
2022-10-17T08:31:49.925Z,16.29
2022-10-17T08:34:19.307Z,16.55
2022-10-17T08:36:47.293Z,16.35
2022-10-17T08:39:15.323Z,16.61
2022-10-17T08:41:48.735Z,16.82
2022-10-17T08:44:22.649Z,16.76
2022-10-17T08:46:53.145Z,16.97
2022-10-17T08:49:24.974Z,17.21
2022-10-17T08:51:56.855Z,17.39
2022-10-17T08:54:28.036Z,17.58
2022-10-17T08:56:56.291Z,17.90
2022-10-17T08:59:27.588Z,17.87
2022-10-17T09:01:59.201Z,18.05
2022-10-17T09:04:41.148Z,18.37
2022-10-17T09:07:13.329Z,18.54
2022-10-17T09:09:44.751Z,18.88
2022-10-17T09:12:16.692Z,18.67
2022-10-17T09:14:51.843Z,18.82
2022-10-17T09:17:25.295Z,18.83
2022-10-17T09:19:58.323Z,18.92
2022-10-17T09:22:29.309Z,18.98
2022-10-17T09:25:00.179Z,18.95
2022-10-17T09:27:33.282Z,19.20
2022-10-17T09:30:21.463Z,19.17
2022-10-17T09:33:01.739Z,19.29
2022-10-17T09:35:30.603Z,19.61
2022-10-17T09:37:59.569Z,19.74
2022-10-17T09:40:30.795Z,20.03
2022-10-17T09:43:00.077Z,20.40
2022-10-17T09:45:33.580Z,20.55
2022-10-17T09:48:06.767Z,20.77
2022-10-17T09:50:34.978Z,21.07
2022-10-17T09:53:03.845Z,21.34
2022-10-17T09:55:35.711Z,21.46
2022-10-17T09:58:04.910Z,21.31
2022-10-17T10:00:35.266Z,21.73
2022-10-17T10:03:16.087Z,22.19
2022-10-17T10:05:58.548Z,22.14
2022-10-17T10:08:28.539Z,22.25
2022-10-17T10:11:03.235Z,22.32
2022-10-17T10:13:32.150Z,22.00
2022-10-17T10:16:25.161Z,21.94
2022-10-17T10:18:53.563Z,22.42
2022-10-17T10:21:22.316Z,22.68
2022-10-17T10:24:07.683Z,22.21
2022-10-17T10:26:39.104Z,22.79
2022-10-17T10:29:08.753Z,22.89
2022-10-17T10:31:40.738Z,22.80
2022-10-17T10:34:17.444Z,21.98
2022-10-17T10:36:51.140Z,22.40
2022-10-17T10:39:27.208Z,22.00
2022-10-17T10:41:55.408Z,22.13
2022-10-17T10:44:25.329Z,22.24
2022-10-17T10:47:08.229Z,22.51
2022-10-17T10:49:36.762Z,22.41
2022-10-17T10:52:05.775Z,22.51
2022-10-17T10:54:36.578Z,22.49
2022-10-17T10:57:06.452Z,22.84
2022-10-17T10:59:40.844Z,22.63
2022-10-17T11:02:16.240Z,23.04
2022-10-17T11:04:48.556Z,22.01
2022-10-17T11:07:22.462Z,22.21
2022-10-17T11:09:55.132Z,22.71
2022-10-17T11:12:26.340Z,23.43
2022-10-17T11:14:58.922Z,23.52
2022-10-17T11:17:31.815Z,22.79
2022-10-17T11:20:10.854Z,23.48
2022-10-17T11:22:41.697Z,23.51
2022-10-17T11:25:17.664Z,23.68
2022-10-17T11:27:45.735Z,22.91
2022-10-17T11:30:14.821Z,22.87
2022-10-17T11:32:45.969Z,23.05
2022-10-17T11:35:19.983Z,23.18
2022-10-17T11:37:51.017Z,22.87
2022-10-17T11:40:24.416Z,23.46
2022-10-17T11:42:54.897Z,23.61
2022-10-17T11:45:24.493Z,23.57
2022-10-17T11:47:55.076Z,23.81
2022-10-17T11:53:17.307Z,24.32
2022-10-17T11:55:46.370Z,23.30
2022-10-17T11:58:30.456Z,24.38
2022-10-17T12:01:06.417Z,23.92
2022-10-17T12:03:46.753Z,24.14
2022-10-17T12:06:19.566Z,24.32
2022-10-17T12:08:50.704Z,24.12
2022-10-17T12:11:28.612Z,24.31
2022-10-17T12:13:57.351Z,23.81
2022-10-17T12:19:28.567Z,23.61
2022-10-17T12:21:59.694Z,23.75
2022-10-17T12:24:36.748Z,24.17
2022-10-17T12:27:24.044Z,24.14
2022-10-17T12:30:00.409Z,24.46
2022-10-17T12:32:46.925Z,24.32
2022-10-17T12:35:24.286Z,23.77
2022-10-17T12:38:14.914Z,23.95
2022-10-17T12:40:56.848Z,24.08
2022-10-17T12:43:44.965Z,23.86
2022-10-17T12:46:54.237Z,24.00
2022-10-17T12:49:41.831Z,24.78
2022-10-17T12:52:21.616Z,24.87
2022-10-17T12:55:00.537Z,23.95
2022-10-17T12:57:45.311Z,24.37
2022-10-17T13:00:21.779Z,24.49
2022-10-17T13:02:53.005Z,24.29
2022-10-17T13:05:28.424Z,24.55
2022-10-17T13:08:00.392Z,24.21
2022-10-17T13:10:31.715Z,24.44
2022-10-17T13:13:07.886Z,24.48
2022-10-17T13:15:37.818Z,24.78
2022-10-17T13:18:06.381Z,24.54
2022-10-17T13:20:37.076Z,24.55
2022-10-17T13:23:06.879Z,24.19
2022-10-17T13:25:38.785Z,24.38
2022-10-17T13:28:13.684Z,24.66
2022-10-17T13:30:49.630Z,24.40
2022-10-17T13:33:29.948Z,24.29
2022-10-17T13:36:01.428Z,24.81
2022-10-17T13:38:34.842Z,24.42
2022-10-17T13:41:33.760Z,24.02
2022-10-17T13:43:53.287Z,24.04
2022-10-17T13:46:37.469Z,23.47
2022-10-17T13:49:11.573Z,23.45
2022-10-17T13:51:43.775Z,23.48
2022-10-17T13:54:20.331Z,23.51
2022-10-17T13:59:30.916Z,23.04
2022-10-17T14:02:01.814Z,23.35
2022-10-17T14:04:40.048Z,23.34
2022-10-17T14:07:22.694Z,23.19
2022-10-17T14:09:52.271Z,23.25
2022-10-17T14:12:21.477Z,23.52
2022-10-17T14:15:09.741Z,23.45
2022-10-17T14:17:38.931Z,24.03
2022-10-17T14:20:57.115Z,24.27
2022-10-17T14:23:21.452Z,24.21
2022-10-17T14:25:48.238Z,24.02
2022-10-17T14:28:18.301Z,24.07
2022-10-17T14:31:02.184Z,24.13
2022-10-17T14:33:32.375Z,24.15
2022-10-17T14:36:01.449Z,24.84
2022-10-17T14:38:30.411Z,24.61
2022-10-17T14:41:30.272Z,24.23
2022-10-17T14:43:53.879Z,24.47
2022-10-17T14:46:22.020Z,24.62
2022-10-17T14:48:53.538Z,24.37
2022-10-17T14:51:21.599Z,24.14
2022-10-17T14:54:06.499Z,24.10
2022-10-17T14:56:41.169Z,24.06
2022-10-17T14:59:12.600Z,24.04
2022-10-17T15:01:46.199Z,23.91
2022-10-17T15:04:14.199Z,23.84
2022-10-17T15:06:45.022Z,23.63
2022-10-17T15:09:13.374Z,23.97
2022-10-17T15:11:42.768Z,23.70
2022-10-17T15:14:10.723Z,23.80
2022-10-17T15:16:39.449Z,23.83
2022-10-17T15:19:07.652Z,23.65
2022-10-17T15:21:42.070Z,23.21
2022-10-17T15:24:13.866Z,23.38
2022-10-17T15:26:43.567Z,23.40
2022-10-17T15:29:16.254Z,23.39
2022-10-17T15:31:44.517Z,23.29
2022-10-17T15:34:12.826Z,23.13
2022-10-17T15:36:42.947Z,23.09
2022-10-17T15:39:11.472Z,22.83
2022-10-17T15:41:39.756Z,23.01
2022-10-17T15:44:09.364Z,22.92
2022-10-17T15:46:42.135Z,22.73
2022-10-17T15:49:13.108Z,22.90
2022-10-17T15:51:41.805Z,22.71
2022-10-17T15:54:10.344Z,22.63
2022-10-17T15:56:41.218Z,22.62
2022-10-17T15:59:15.026Z,22.50
2022-10-17T16:01:43.681Z,22.43
2022-10-17T16:04:15.408Z,22.19
2022-10-17T16:06:46.154Z,21.79
2022-10-17T16:09:14.465Z,21.79
2022-10-17T16:11:44.527Z,21.92
2022-10-17T16:14:16.837Z,21.89
2022-10-17T16:16:45.351Z,21.92
2022-10-17T16:19:13.697Z,21.79
2022-10-17T16:21:42.712Z,21.30
2022-10-17T16:24:12.339Z,21.06
2022-10-17T16:26:42.732Z,21.27
2022-10-17T16:29:14.803Z,21.19
2022-10-17T16:31:45.259Z,21.04
2022-10-17T16:34:14.695Z,20.71
2022-10-17T16:36:43.191Z,20.98
2022-10-17T16:39:13.804Z,20.81
2022-10-17T16:41:42.068Z,20.67
2022-10-17T16:44:14.520Z,20.06
2022-10-17T16:46:42.831Z,19.97
2022-10-17T16:49:15.915Z,19.99
2022-10-17T16:51:44.133Z,19.43
2022-10-17T16:54:12.349Z,19.53
2022-10-17T16:56:42.040Z,19.42
2022-10-17T16:59:11.993Z,18.97
2022-10-17T17:01:41.667Z,19.21
2022-10-17T17:04:09.934Z,19.33
2022-10-17T17:06:38.645Z,19.29
2022-10-17T17:09:08.561Z,19.31
2022-10-17T17:11:37.779Z,19.06
2022-10-17T17:14:06.414Z,18.97
2022-10-17T17:16:35.278Z,19.03
2022-10-17T17:19:05.621Z,19.15
2022-10-17T17:21:33.943Z,19.06
2022-10-17T17:24:02.547Z,18.70
2022-10-17T17:26:31.699Z,18.88
2022-10-17T17:29:00.874Z,18.81
2022-10-17T17:31:29.752Z,18.75
2022-10-17T17:33:58.009Z,18.31
2022-10-17T17:36:28.255Z,18.34
2022-10-17T17:38:59.352Z,18.09
2022-10-17T17:41:27.764Z,18.12
2022-10-17T17:43:55.780Z,17.96
2022-10-17T17:46:24.770Z,18.13
2022-10-17T17:48:53.824Z,17.81
2022-10-17T17:51:26.883Z,17.48
2022-10-17T17:53:58.431Z,17.49
2022-10-17T17:56:27.459Z,17.98
2022-10-17T17:58:56.662Z,17.72
2022-10-17T18:01:25.502Z,18.06
2022-10-17T18:03:54.757Z,17.81
2022-10-17T18:06:25.786Z,17.71
2022-10-17T18:08:55.011Z,17.48
2022-10-17T18:11:28.089Z,17.46
2022-10-17T18:13:56.613Z,17.38
2022-10-17T18:16:24.991Z,17.40
2022-10-17T18:18:53.249Z,17.62
2022-10-17T18:21:21.240Z,17.63
2022-10-17T18:23:49.609Z,17.37
2022-10-17T18:26:17.628Z,17.31
2022-10-17T18:28:46.981Z,17.43
2022-10-17T18:31:18.855Z,17.04
2022-10-17T18:33:46.935Z,17.36
2022-10-17T18:36:15.996Z,17.28
2022-10-17T18:38:46.070Z,16.99
2022-10-17T18:41:17.836Z,17.27
2022-10-17T18:43:48.895Z,16.82
2022-10-17T18:46:17.744Z,17.12
2022-10-17T18:48:46.713Z,17.17
2022-10-17T18:51:18.018Z,16.97
2022-10-17T18:53:46.706Z,16.69
2022-10-17T18:56:15.104Z,16.49
2022-10-17T18:58:47.046Z,16.69
2022-10-17T19:01:16.274Z,16.41
2022-10-17T19:03:44.600Z,16.45
2022-10-17T19:06:13.395Z,16.31
2022-10-17T19:08:42.313Z,16.34
2022-10-17T19:11:11.707Z,16.18
2022-10-17T19:13:40.046Z,15.95
2022-10-17T19:16:14.221Z,16.18
2022-10-17T19:18:42.256Z,16.12
2022-10-17T19:21:11.003Z,16.04
2022-10-17T19:23:41.066Z,16.20
2022-10-17T19:26:11.063Z,15.90
2022-10-17T19:28:42.172Z,16.11
2022-10-17T19:31:16.917Z,15.92
2022-10-17T19:33:49.522Z,15.85
2022-10-17T19:36:17.848Z,15.97
2022-10-17T19:38:45.884Z,15.78
2022-10-17T19:41:14.853Z,15.78
2022-10-17T19:43:43.559Z,15.72
2022-10-17T19:46:12.334Z,15.67
2022-10-17T19:48:42.508Z,15.75
2022-10-17T19:51:13.132Z,15.72
2022-10-17T19:53:41.408Z,15.56
2022-10-17T19:56:09.947Z,15.48
2022-10-17T19:58:44.549Z,15.63
2022-10-17T20:01:13.257Z,15.55
2022-10-17T20:03:44.413Z,15.74
2022-10-17T20:06:13.835Z,15.86
2022-10-17T20:08:42.040Z,16.02
2022-10-17T20:11:11.916Z,15.66
2022-10-17T20:13:40.509Z,15.60
2022-10-17T20:16:09.236Z,15.70
2022-10-17T20:18:38.041Z,15.79
2022-10-17T20:21:07.128Z,15.67
2022-10-17T20:23:36.909Z,15.60
2022-10-17T20:26:08.724Z,15.51
2022-10-17T20:28:47.268Z,15.47
2022-10-17T20:31:16.086Z,15.54
2022-10-17T20:33:44.124Z,15.70
2022-10-17T20:36:12.783Z,15.64
2022-10-17T20:38:42.214Z,15.66
2022-10-17T20:41:11.099Z,15.67
2022-10-17T20:43:39.168Z,15.54
2022-10-17T20:46:22.872Z,15.60
2022-10-17T20:48:54.040Z,15.47
2022-10-17T20:51:22.382Z,15.49
2022-10-17T20:53:51.736Z,15.41
2022-10-17T20:56:20.392Z,15.44
2022-10-17T20:58:51.173Z,15.12
2022-10-17T21:01:19.302Z,14.99
2022-10-17T21:03:47.341Z,15.17
2022-10-17T21:06:15.309Z,15.15
2022-10-17T21:08:43.399Z,14.93
2022-10-17T21:11:13.958Z,14.71
2022-10-17T21:13:42.214Z,14.78
2022-10-17T21:16:11.263Z,14.82
2022-10-17T21:18:39.711Z,14.92
2022-10-17T21:21:08.635Z,14.79
2022-10-17T21:23:39.534Z,14.88
2022-10-17T21:26:09.330Z,14.95
2022-10-17T21:28:39.101Z,14.95
2022-10-17T21:31:12.022Z,14.98
2022-10-17T21:33:40.250Z,14.87
2022-10-17T21:36:13.723Z,14.71
2022-10-17T21:38:44.080Z,14.83
2022-10-17T21:41:12.704Z,14.87
2022-10-17T21:43:44.631Z,14.87
2022-10-17T21:46:15.162Z,14.84
2022-10-17T21:48:43.598Z,14.75
2022-10-17T21:51:13.132Z,14.55
2022-10-17T21:53:41.427Z,14.63
2022-10-17T21:56:11.298Z,14.57
2022-10-17T21:58:39.593Z,14.14
2022-10-17T22:02:35.090Z,14.13
2022-10-17T22:05:06.295Z,13.91
2022-10-17T22:07:36.286Z,14.04
2022-10-17T22:10:08.048Z,14.15
2022-10-17T22:12:36.447Z,14.65
2022-10-17T22:15:07.543Z,14.18
2022-10-17T22:17:37.444Z,14.04
2022-10-17T22:20:06.369Z,14.02
2022-10-17T22:22:34.597Z,14.01
2022-10-17T22:25:07.417Z,14.22
2022-10-17T22:27:38.634Z,14.36
2022-10-17T22:30:10.343Z,14.24
2022-10-17T22:32:40.072Z,14.41
2022-10-17T22:35:09.091Z,14.31
2022-10-17T22:37:37.978Z,14.23
2022-10-17T22:40:07.780Z,14.26
2022-10-17T22:42:36.474Z,14.36
2022-10-17T22:45:05.163Z,14.17
2022-10-17T22:47:33.539Z,14.24
2022-10-17T22:50:03.285Z,14.37
2022-10-17T22:52:31.710Z,13.68
2022-10-17T22:55:00.149Z,13.58
2022-10-17T22:57:28.433Z,13.53
2022-10-17T22:59:56.673Z,13.80
2022-10-17T23:02:25.295Z,14.11
2022-10-17T23:04:53.570Z,13.83
2022-10-17T23:07:25.921Z,13.72
2022-10-17T23:09:54.471Z,13.95
2022-10-17T23:12:22.766Z,14.02
2022-10-17T23:14:51.023Z,13.87
2022-10-17T23:17:19.599Z,13.82
2022-10-17T23:19:47.875Z,13.79
2022-10-17T23:22:16.078Z,13.91
2022-10-17T23:24:45.698Z,13.95
2022-10-17T23:27:13.900Z,14.13
2022-10-17T23:29:42.508Z,13.77
2022-10-17T23:32:10.687Z,13.41
2022-10-17T23:34:38.912Z,13.52
2022-10-17T23:37:07.171Z,13.43
2022-10-17T23:39:35.424Z,13.48
2022-10-17T23:42:05.208Z,13.52
2022-10-17T23:44:35.807Z,13.58
2022-10-17T23:47:04.114Z,13.77
2022-10-17T23:49:35.492Z,13.82
2022-10-17T23:52:06.766Z,13.93
2022-10-17T23:54:35.121Z,13.91
2022-10-17T23:57:04.785Z,13.89
2022-10-17T23:59:32.982Z,13.95
